createdAt,value
2022-11-26T00:01:21.925Z,12.17
2022-11-26T00:03:49.671Z,11.27
2022-11-26T00:06:18.974Z,11.27
2022-11-26T00:08:45.728Z,6.47
2022-11-26T00:11:13.678Z,9.77
2022-11-26T00:13:40.276Z,8.13
2022-11-26T00:16:12.217Z,7.70
2022-11-26T00:18:39.030Z,12.07
2022-11-26T00:21:10.195Z,11.97
2022-11-26T00:23:37.539Z,9.17
2022-11-26T00:26:08.853Z,7.63
2022-11-26T00:28:38.136Z,12.67
2022-11-26T00:31:07.932Z,8.33
2022-11-26T00:33:34.590Z,9.50
2022-11-26T00:36:15.405Z,11.83
2022-11-26T00:38:42.084Z,9.23
2022-11-26T00:41:22.029Z,9.83
2022-11-26T00:43:49.076Z,10.03
2022-11-26T00:46:17.867Z,9.20
2022-11-26T00:48:44.623Z,10.30
2022-11-26T00:51:27.135Z,9.43
2022-11-26T00:53:56.309Z,12.03
2022-11-26T00:56:23.638Z,9.90
2022-11-26T00:58:50.814Z,13.00
2022-11-26T01:01:23.210Z,12.90
2022-11-26T01:03:50.334Z,16.20
2022-11-26T01:06:21.031Z,15.53
2022-11-26T01:08:48.518Z,8.10
2022-11-26T01:11:18.545Z,14.03
2022-11-26T01:13:47.064Z,12.27
2022-11-26T01:16:21.480Z,11.27
2022-11-26T01:18:50.249Z,9.07
2022-11-26T01:21:17.594Z,13.77
2022-11-26T01:23:45.048Z,17.40
2022-11-26T01:26:23.498Z,16.93
2022-11-26T01:28:50.942Z,13.23
2022-11-26T01:31:27.285Z,9.77
2022-11-26T01:33:54.477Z,10.27
2022-11-26T01:36:35.410Z,14.83
2022-11-26T01:39:23.587Z,13.33
2022-11-26T01:42:22.215Z,11.83
2022-11-26T01:44:48.803Z,9.93
2022-11-26T01:47:23.163Z,11.43
2022-11-26T01:50:27.259Z,10.27
2022-11-26T01:53:02.599Z,9.27
2022-11-26T01:55:51.311Z,12.33
2022-11-26T01:58:24.873Z,10.13
2022-11-26T02:00:51.670Z,12.60
2022-11-26T02:03:22.957Z,12.43
2022-11-26T02:05:58.865Z,10.20
2022-11-26T02:08:28.323Z,11.40
2022-11-26T02:10:54.993Z,15.97
2022-11-26T02:13:22.520Z,9.80
2022-11-26T02:16:03.945Z,13.00
2022-11-26T02:18:38.194Z,15.60
2022-11-26T02:21:15.307Z,9.20
2022-11-26T02:24:00.003Z,11.73
2022-11-26T02:26:37.426Z,8.07
2022-11-26T02:29:11.402Z,12.50
2022-11-26T02:31:44.185Z,9.00
2022-11-26T02:34:14.434Z,11.80
2022-11-26T02:36:57.263Z,9.37
2022-11-26T02:39:27.468Z,11.07
2022-11-26T02:41:57.572Z,6.43
2022-11-26T02:44:28.369Z,9.30
2022-11-26T02:47:01.606Z,7.40
2022-11-26T02:49:33.262Z,10.53
2022-11-26T02:52:04.047Z,8.83
2022-11-26T02:54:32.480Z,6.83
2022-11-26T02:57:02.024Z,7.87
2022-11-26T02:59:29.398Z,7.00
2022-11-26T03:02:03.178Z,9.20
2022-11-26T03:04:35.921Z,8.73
2022-11-26T03:07:06.252Z,8.13
2022-11-26T03:09:50.538Z,7.70
2022-11-26T03:12:17.225Z,9.27
2022-11-26T03:14:43.941Z,10.43
2022-11-26T03:17:10.593Z,10.17
2022-11-26T03:19:37.463Z,12.33
2022-11-26T03:22:04.934Z,9.57
2022-11-26T03:24:32.286Z,10.27
2022-11-26T03:26:59.385Z,12.23
2022-11-26T03:29:26.071Z,10.03
2022-11-26T03:31:52.985Z,9.50
2022-11-26T03:34:20.110Z,11.03
2022-11-26T03:36:46.986Z,10.53
2022-11-26T03:39:13.983Z,9.07
2022-11-26T03:41:44.121Z,7.63
2022-11-26T03:44:12.292Z,8.10
2022-11-26T03:46:39.179Z,9.63
2022-11-26T03:49:05.945Z,9.77
2022-11-26T03:51:32.803Z,10.33
2022-11-26T03:53:59.523Z,8.20
2022-11-26T03:56:26.193Z,9.20
2022-11-26T03:58:52.804Z,8.70
2022-11-26T04:01:19.448Z,8.57
2022-11-26T04:03:46.231Z,9.30
2022-11-26T04:06:13.018Z,7.37
2022-11-26T04:08:39.621Z,9.53
2022-11-26T04:11:06.282Z,6.97
2022-11-26T04:13:32.898Z,8.17
2022-11-26T04:15:59.633Z,7.83
2022-11-26T04:18:26.506Z,7.00
2022-11-26T04:20:53.656Z,11.43
2022-11-26T04:23:20.616Z,6.93
2022-11-26T04:25:47.552Z,7.87
2022-11-26T04:28:15.240Z,6.20
2022-11-26T04:30:43.085Z,10.40
2022-11-26T04:33:10.485Z,8.43
2022-11-26T04:35:38.186Z,9.60
2022-11-26T04:38:04.753Z,5.53
2022-11-26T04:40:31.410Z,5.20
2022-11-26T04:42:57.973Z,5.73
2022-11-26T04:45:24.657Z,7.87
2022-11-26T04:47:51.353Z,6.30
2022-11-26T04:50:18.328Z,9.57
2022-11-26T04:52:48.315Z,6.23
2022-11-26T04:55:16.270Z,8.97
2022-11-26T04:57:43.119Z,10.93
2022-11-26T05:00:11.070Z,7.00
2022-11-26T05:02:37.736Z,7.17
2022-11-26T05:05:04.623Z,6.80
2022-11-26T05:07:31.243Z,8.10
2022-11-26T05:09:57.902Z,7.70
2022-11-26T05:12:24.712Z,7.90
2022-11-26T05:14:51.313Z,7.40
2022-11-26T05:17:18.491Z,8.37
2022-11-26T05:19:46.293Z,5.70
2022-11-26T05:22:12.885Z,6.60
2022-11-26T05:24:39.729Z,5.33
2022-11-26T05:27:06.851Z,6.37
2022-11-26T05:29:33.485Z,6.30
2022-11-26T05:32:00.253Z,6.90
2022-11-26T05:34:27.233Z,7.33
2022-11-26T05:36:53.954Z,5.97
2022-11-26T05:39:20.697Z,6.20
2022-11-26T05:41:47.268Z,7.20
2022-11-26T05:44:13.973Z,5.93
2022-11-26T05:46:42.552Z,12.53
2022-11-26T05:49:09.686Z,16.17
2022-11-26T05:51:36.366Z,70.37
2022-11-26T05:54:03.135Z,208.67
2022-11-26T05:56:29.723Z,217.53
2022-11-26T05:58:56.328Z,138.93
2022-11-26T06:01:22.918Z,155.47
2022-11-26T06:03:49.829Z,195.00
2022-11-26T06:06:16.665Z,130.90
2022-11-26T06:08:43.270Z,191.53
2022-11-26T06:11:12.767Z,171.57
2022-11-26T06:13:40.046Z,81.00
2022-11-26T06:16:07.236Z,109.10
2022-11-26T06:18:34.107Z,157.37
2022-11-26T06:21:01.987Z,144.87
2022-11-26T06:23:28.594Z,112.50
2022-11-26T06:25:55.531Z,139.33
2022-11-26T06:28:22.105Z,117.53
2022-11-26T06:30:48.754Z,159.23
2022-11-26T06:33:15.418Z,150.10
2022-11-26T06:35:42.077Z,83.77
2022-11-26T06:38:08.752Z,83.47
2022-11-26T06:40:35.442Z,163.47
2022-11-26T06:43:02.041Z,89.37
2022-11-26T06:45:28.653Z,124.07
2022-11-26T06:47:55.237Z,161.17
2022-11-26T06:50:23.092Z,80.30
2022-11-26T06:52:53.478Z,73.00
2022-11-26T06:55:20.619Z,72.47
2022-11-26T06:57:51.661Z,37.93
2022-11-26T07:00:18.625Z,20.00
2022-11-26T07:02:45.372Z,19.90
2022-11-26T07:05:12.081Z,22.80
2022-11-26T07:07:40.097Z,23.03
2022-11-26T07:10:07.515Z,19.17
2022-11-26T07:12:34.116Z,44.03
2022-11-26T07:15:00.777Z,32.97
2022-11-26T07:17:28.856Z,35.33
2022-11-26T07:19:55.494Z,35.30
2022-11-26T07:22:22.103Z,28.30
2022-11-26T07:24:48.802Z,33.10
2022-11-26T07:27:15.426Z,26.83
2022-11-26T07:29:42.190Z,20.30
2022-11-26T07:32:08.778Z,16.70
2022-11-26T07:34:35.374Z,17.40
2022-11-26T07:37:01.950Z,14.07
2022-11-26T07:39:28.568Z,9.57
2022-11-26T07:41:55.234Z,16.37
2022-11-26T07:44:22.009Z,14.23
2022-11-26T07:46:48.561Z,12.67
2022-11-26T07:49:15.127Z,10.60
2022-11-26T07:51:41.834Z,11.20
2022-11-26T07:54:08.974Z,9.70
2022-11-26T07:56:36.316Z,14.77
2022-11-26T07:59:03.424Z,14.17
2022-11-26T08:01:30.843Z,11.77
2022-11-26T08:03:58.863Z,11.17
2022-11-26T08:06:28.634Z,13.80
2022-11-26T08:08:55.551Z,12.13
2022-11-26T08:11:25.456Z,13.57
2022-11-26T08:13:57.835Z,12.73
2022-11-26T08:16:26.880Z,9.20
2022-11-26T08:18:56.707Z,14.47
2022-11-26T08:21:23.984Z,15.97
2022-11-26T08:23:51.339Z,9.40
2022-11-26T08:26:25.076Z,11.77
2022-11-26T08:28:57.659Z,11.90
2022-11-26T08:31:24.962Z,14.77
2022-11-26T08:33:51.679Z,11.13
2022-11-26T08:36:18.489Z,11.03
2022-11-26T08:38:45.129Z,26.43
2022-11-26T08:41:13.759Z,12.60
2022-11-26T08:46:27.786Z,13.77
2022-11-26T08:48:57.926Z,13.67
2022-11-26T08:51:25.621Z,13.07
2022-11-26T08:53:52.870Z,13.07
2022-11-26T08:56:19.670Z,13.70
2022-11-26T08:58:46.642Z,9.87
2022-11-26T09:01:19.501Z,9.03
2022-11-26T09:03:50.312Z,11.57
2022-11-26T09:06:17.965Z,10.17
2022-11-26T09:09:03.225Z,12.47
2022-11-26T09:11:29.901Z,13.87
2022-11-26T09:13:57.818Z,8.53
2022-11-26T09:16:25.130Z,13.47
2022-11-26T09:18:52.098Z,11.40
2022-11-26T09:21:19.885Z,9.57
2022-11-26T09:23:46.555Z,9.83
2022-11-26T09:26:13.199Z,9.63
2022-11-26T09:28:39.830Z,9.93
2022-11-26T09:31:06.788Z,9.07
2022-11-26T09:33:33.429Z,12.33
2022-11-26T09:36:07.311Z,9.47
2022-11-26T09:38:34.639Z,11.70
2022-11-26T09:41:19.933Z,13.97
2022-11-26T09:44:22.967Z,11.00
2022-11-26T09:47:16.567Z,7.23
2022-11-26T09:49:55.194Z,10.40
2022-11-26T09:52:25.852Z,9.67
2022-11-26T09:55:00.483Z,9.47
2022-11-26T09:57:33.870Z,9.87
2022-11-26T10:00:00.602Z,7.57
2022-11-26T10:02:27.253Z,10.47
2022-11-26T10:04:53.990Z,7.63
2022-11-26T10:07:39.017Z,11.43
2022-11-26T10:10:34.044Z,8.70
2022-11-26T10:13:25.971Z,9.97
2022-11-26T10:16:05.304Z,11.70
2022-11-26T10:18:40.704Z,8.90
2022-11-26T10:21:07.283Z,8.77
2022-11-26T10:23:41.910Z,7.47
2022-11-26T10:26:28.879Z,11.00
2022-11-26T10:29:15.904Z,11.17
2022-11-26T10:31:46.816Z,9.07
2022-11-26T10:34:37.497Z,9.60
2022-11-26T10:37:05.983Z,9.50
2022-11-26T10:39:32.588Z,9.90
2022-11-26T10:42:05.047Z,7.17
2022-11-26T10:44:33.905Z,7.40
2022-11-26T10:47:19.881Z,9.40
2022-11-26T10:49:46.464Z,13.23
2022-11-26T10:52:17.583Z,6.27
2022-11-26T10:54:45.192Z,9.33
2022-11-26T10:57:16.732Z,9.47
2022-11-26T10:59:51.303Z,8.47
2022-11-26T11:02:34.721Z,8.77
2022-11-26T11:05:05.990Z,9.83
2022-11-26T11:07:38.588Z,10.30
2022-11-26T11:10:11.681Z,6.87
2022-11-26T11:13:00.095Z,7.60
2022-11-26T11:15:32.171Z,7.97
2022-11-26T11:18:13.038Z,9.80
2022-11-26T11:20:43.145Z,5.57
2022-11-26T11:23:09.688Z,9.80
2022-11-26T11:25:43.792Z,6.70
2022-11-26T11:28:13.330Z,11.63
2022-11-26T11:30:41.622Z,6.40
2022-11-26T11:33:23.592Z,7.80
2022-11-26T11:36:11.911Z,8.67
2022-11-26T11:38:51.746Z,8.60
2022-11-26T11:41:31.067Z,7.80
2022-11-26T11:44:22.140Z,6.07
2022-11-26T11:47:16.567Z,7.53
2022-11-26T11:50:14.258Z,6.60
2022-11-26T11:52:43.785Z,5.47
2022-11-26T11:55:13.154Z,7.40
2022-11-26T11:57:42.367Z,5.33
2022-11-26T12:00:18.675Z,5.33
2022-11-26T12:02:45.225Z,3.63
2022-11-26T12:05:27.146Z,6.30
2022-11-26T12:08:06.990Z,4.67
2022-11-26T12:10:59.138Z,7.63
2022-11-26T12:13:26.975Z,4.87
2022-11-26T12:16:03.330Z,4.67
2022-11-26T12:18:58.515Z,5.80
2022-11-26T12:21:42.610Z,6.60
2022-11-26T12:24:20.633Z,5.03
2022-11-26T12:26:53.526Z,5.47
2022-11-26T12:29:30.597Z,7.47
2022-11-26T12:32:11.348Z,6.90
2022-11-26T12:34:47.557Z,6.03
2022-11-26T12:37:24.154Z,5.77
2022-11-26T12:39:59.607Z,6.37
2022-11-26T12:42:45.201Z,5.33
2022-11-26T12:45:39.581Z,6.87
2022-11-26T12:48:22.098Z,7.50
2022-11-26T12:50:55.003Z,6.40
2022-11-26T12:53:57.058Z,7.13
2022-11-26T12:56:32.048Z,3.53
2022-11-26T12:59:28.186Z,5.77
2022-11-26T13:01:54.935Z,5.60
2022-11-26T13:04:37.284Z,5.40
2022-11-26T13:07:26.364Z,7.93
2022-11-26T13:10:11.473Z,6.73
2022-11-26T13:12:55.936Z,7.97
2022-11-26T13:15:37.731Z,8.03
2022-11-26T13:18:09.544Z,9.00
2022-11-26T13:21:14.823Z,5.67
2022-11-26T13:24:40.293Z,6.93
2022-11-26T13:27:22.147Z,6.70
2022-11-26T13:29:51.705Z,6.57
2022-11-26T13:32:42.796Z,6.97
2022-11-26T13:35:40.329Z,9.23
2022-11-26T13:38:16.508Z,4.53
2022-11-26T13:40:46.161Z,4.67
2022-11-26T13:43:16.993Z,4.83
2022-11-26T13:45:55.834Z,4.80
2022-11-26T13:48:55.137Z,6.53
2022-11-26T13:51:47.276Z,8.77
2022-11-26T13:54:25.868Z,8.07
2022-11-26T13:57:12.428Z,10.27
2022-11-26T13:59:53.323Z,7.67
2022-11-26T14:02:38.569Z,6.83
2022-11-26T14:05:11.432Z,7.33
2022-11-26T14:07:38.595Z,5.33
2022-11-26T14:10:08.622Z,9.73
2022-11-26T14:13:03.129Z,12.43
2022-11-26T14:15:41.654Z,11.13
2022-11-26T14:18:12.602Z,6.50
2022-11-26T14:21:20.940Z,8.43
2022-11-26T14:23:52.666Z,5.23
2022-11-26T14:26:23.202Z,4.77
2022-11-26T14:28:51.602Z,6.70
2022-11-26T14:31:27.957Z,4.53
2022-11-26T14:33:58.565Z,5.93
2022-11-26T14:36:27.250Z,7.07
2022-11-26T14:39:06.842Z,4.57
2022-11-26T14:41:35.259Z,6.33
2022-11-26T14:44:15.463Z,7.37
2022-11-26T14:46:45.400Z,5.33
2022-11-26T14:49:16.442Z,7.63
2022-11-26T14:51:45.953Z,7.83
2022-11-26T14:54:24.517Z,5.93
2022-11-26T14:56:51.215Z,6.17
2022-11-26T14:59:19.053Z,5.90
2022-11-26T15:01:46.683Z,5.87
2022-11-26T15:04:26.612Z,7.87
2022-11-26T15:06:53.713Z,7.63
2022-11-26T15:09:25.580Z,6.60
2022-11-26T15:12:13.656Z,7.30
2022-11-26T15:14:49.822Z,9.03
2022-11-26T15:17:18.750Z,10.00
2022-11-26T15:19:47.439Z,8.57
2022-11-26T15:22:38.193Z,10.23
2022-11-26T15:25:12.275Z,8.03
2022-11-26T15:27:48.162Z,12.47
2022-11-26T15:30:24.392Z,9.67
2022-11-26T15:33:12.810Z,35.43
2022-11-26T15:35:40.205Z,23.70
2022-11-26T15:38:15.824Z,18.40
2022-11-26T15:40:51.926Z,15.73
2022-11-26T15:43:18.523Z,11.03
2022-11-26T15:45:45.242Z,9.30
2022-11-26T15:48:28.096Z,10.37
2022-11-26T15:51:12.199Z,7.60
2022-11-26T15:53:44.959Z,9.03
2022-11-26T15:56:18.816Z,12.57
2022-11-26T15:58:49.363Z,7.83
2022-11-26T16:01:18.773Z,12.57
2022-11-26T16:03:48.704Z,16.47
2022-11-26T16:06:40.643Z,15.70
2022-11-26T16:09:14.765Z,11.03
2022-11-26T16:11:57.355Z,7.57
2022-11-26T16:14:32.541Z,7.80
2022-11-26T16:17:08.587Z,13.50
2022-11-26T16:19:37.027Z,14.47
2022-11-26T16:22:05.782Z,13.43
2022-11-26T16:24:43.692Z,13.63
2022-11-26T16:27:22.319Z,10.57
2022-11-26T16:29:49.704Z,13.00
2022-11-26T16:32:17.955Z,7.37
2022-11-26T16:34:45.262Z,10.27
2022-11-26T16:37:22.489Z,9.03
2022-11-26T16:39:51.111Z,10.13
2022-11-26T16:42:22.976Z,7.83
2022-11-26T16:44:50.394Z,7.70
2022-11-26T16:47:24.560Z,8.57
2022-11-26T16:49:51.826Z,10.93
2022-11-26T16:52:19.288Z,10.43
2022-11-26T16:54:46.197Z,10.30
2022-11-26T16:57:15.568Z,14.30
2022-11-26T16:59:44.598Z,11.77
2022-11-26T17:02:19.062Z,11.80
2022-11-26T17:04:46.174Z,11.67
2022-11-26T17:07:29.255Z,10.60
2022-11-26T17:09:56.954Z,12.60
2022-11-26T17:12:25.087Z,10.07
2022-11-26T17:17:25.563Z,9.70
2022-11-26T17:19:52.914Z,8.53
2022-11-26T17:22:20.293Z,10.20
2022-11-26T17:24:46.891Z,8.50
2022-11-26T17:27:15.508Z,11.70
2022-11-26T17:29:44.516Z,13.23
2022-11-26T17:32:17.199Z,12.90
2022-11-26T17:34:44.910Z,12.40
2022-11-26T17:37:20.126Z,11.63
2022-11-26T17:39:46.783Z,15.13
2022-11-26T17:42:13.346Z,10.90
2022-11-26T17:44:40.043Z,9.53
2022-11-26T17:47:17.303Z,12.10
2022-11-26T17:49:45.554Z,10.03
2022-11-26T17:52:12.732Z,10.47
2022-11-26T17:54:39.634Z,15.00
2022-11-26T17:57:06.770Z,28.93
2022-11-26T17:59:33.914Z,12.27
2022-11-26T18:02:02.498Z,13.60
2022-11-26T18:04:29.678Z,25.13
2022-11-26T18:07:05.304Z,20.50
2022-11-26T18:09:32.968Z,30.80
2022-11-26T18:12:00.435Z,27.87
2022-11-26T18:14:27.551Z,27.53
2022-11-26T18:16:55.113Z,32.60
2022-11-26T18:19:23.520Z,9.83
2022-11-26T18:21:51.086Z,11.80
2022-11-26T18:24:18.102Z,9.63
2022-11-26T18:26:44.744Z,9.90
2022-11-26T18:29:11.809Z,7.70
2022-11-26T18:31:39.860Z,12.50
2022-11-26T18:34:07.955Z,12.80
2022-11-26T18:36:34.610Z,7.30
2022-11-26T18:39:03.463Z,15.80
2022-11-26T18:41:30.143Z,10.03
2022-11-26T18:43:56.696Z,10.57
2022-11-26T18:46:23.354Z,11.77
2022-11-26T18:48:51.167Z,27.47
2022-11-26T18:51:18.612Z,10.07
2022-11-26T18:53:45.243Z,17.37
2022-11-26T18:56:15.705Z,11.13
2022-11-26T18:58:43.055Z,10.63
2022-11-26T19:01:17.297Z,8.40
2022-11-26T19:03:44.636Z,10.67
2022-11-26T19:06:16.378Z,8.47
2022-11-26T19:08:43.437Z,9.70
2022-11-26T19:11:12.477Z,7.77
2022-11-26T19:13:39.252Z,6.87
2022-11-26T19:16:11.594Z,7.07
2022-11-26T19:18:43.163Z,17.70
2022-11-26T19:21:38.889Z,10.40
2022-11-26T19:24:07.909Z,10.47
2022-11-26T19:26:36.802Z,8.27
2022-11-26T19:29:05.684Z,4.67
2022-11-26T19:31:38.926Z,6.23
2022-11-26T19:34:09.906Z,8.30
2022-11-26T19:36:37.742Z,7.47
2022-11-26T19:39:05.712Z,9.43
2022-11-26T19:41:33.144Z,9.57
2022-11-26T19:44:00.679Z,7.17
2022-11-26T19:46:27.849Z,7.53
2022-11-26T19:48:55.735Z,6.40
2022-11-26T19:51:24.081Z,9.10
2022-11-26T19:53:52.850Z,7.03
2022-11-26T19:56:22.531Z,5.17
2022-11-26T19:58:49.492Z,7.80
2022-11-26T20:01:17.230Z,7.83
2022-11-26T20:03:43.966Z,5.67
2022-11-26T20:06:18.598Z,9.50
2022-11-26T20:08:45.939Z,12.33
2022-11-26T20:11:13.099Z,9.53
2022-11-26T20:13:42.070Z,8.63
2022-11-26T20:16:11.486Z,5.90
2022-11-26T20:18:39.593Z,6.00
2022-11-26T20:21:12.708Z,7.87
2022-11-26T20:23:39.509Z,8.10
2022-11-26T20:26:17.736Z,7.13
2022-11-26T20:28:44.766Z,6.73
2022-11-26T20:31:12.688Z,9.77
2022-11-26T20:33:39.462Z,6.83
2022-11-26T20:36:11.083Z,5.57
2022-11-26T20:38:38.091Z,8.73
2022-11-26T20:41:12.513Z,7.80
2022-11-26T20:43:39.419Z,11.87
2022-11-26T20:46:07.600Z,9.53
2022-11-26T20:48:36.302Z,9.40
2022-11-26T20:51:05.958Z,9.47
2022-11-26T20:53:34.585Z,10.40
2022-11-26T20:56:01.676Z,11.00
2022-11-26T20:58:28.805Z,9.93
2022-11-26T21:00:56.056Z,9.13
2022-11-26T21:03:26.115Z,8.17
2022-11-26T21:05:52.751Z,6.57
2022-11-26T21:08:20.641Z,7.63
2022-11-26T21:10:47.582Z,4.57
2022-11-26T21:13:17.062Z,7.33
2022-11-26T21:15:47.343Z,7.77
2022-11-26T21:18:14.335Z,6.93
2022-11-26T21:20:42.481Z,7.80
2022-11-26T21:23:10.609Z,17.67
2022-11-26T21:25:40.380Z,8.23
2022-11-26T21:28:07.661Z,5.10
2022-11-26T21:30:35.619Z,8.07
2022-11-26T21:33:08.766Z,10.27
2022-11-26T21:35:37.469Z,6.87
2022-11-26T21:38:05.834Z,9.53
2022-11-26T21:40:33.219Z,8.60
2022-11-26T21:43:00.100Z,13.53
2022-11-26T21:45:27.863Z,11.23
2022-11-26T21:47:54.815Z,6.23
2022-11-26T21:50:23.080Z,8.23
2022-11-26T21:52:49.685Z,7.93
2022-11-26T21:55:16.859Z,7.90
2022-11-26T21:57:43.721Z,8.03
2022-11-26T22:00:11.009Z,8.77
2022-11-26T22:02:38.074Z,7.03
2022-11-26T22:05:06.657Z,5.47
2022-11-26T22:07:33.325Z,7.63
2022-11-26T22:10:01.039Z,7.20
2022-11-26T22:12:27.771Z,8.80
2022-11-26T22:14:54.568Z,8.90
2022-11-26T22:17:22.138Z,7.50
2022-11-26T22:19:48.757Z,9.37
2022-11-26T22:22:15.716Z,7.80
2022-11-26T22:24:42.723Z,8.93
2022-11-26T22:27:09.312Z,10.23
2022-11-26T22:29:36.570Z,8.63
2022-11-26T22:32:03.402Z,7.47
2022-11-26T22:34:30.578Z,9.73
2022-11-26T22:36:57.495Z,9.07
2022-11-26T22:39:24.196Z,6.33
2022-11-26T22:41:50.974Z,10.47
2022-11-26T22:44:17.873Z,9.27
2022-11-26T22:46:45.172Z,7.90
2022-11-26T22:49:14.276Z,7.40
2022-11-26T22:51:40.919Z,9.57
2022-11-26T22:54:09.880Z,8.37
2022-11-26T22:56:37.867Z,8.37
2022-11-26T22:59:06.148Z,9.60
2022-11-26T23:01:34.169Z,9.40
2022-11-26T23:04:02.590Z,7.97
2022-11-26T23:06:31.127Z,9.83
2022-11-26T23:08:58.755Z,10.40
2022-11-26T23:11:26.727Z,8.20
2022-11-26T23:13:53.805Z,13.33
2022-11-26T23:16:23.957Z,11.57
2022-11-26T23:18:51.911Z,10.60
2022-11-26T23:21:30.063Z,9.57
2022-11-26T23:23:57.486Z,11.57
2022-11-26T23:26:30.715Z,14.30
2022-11-26T23:28:59.499Z,10.37
2022-11-26T23:31:32.145Z,13.20
2022-11-26T23:33:59.132Z,12.43
2022-11-26T23:36:26.868Z,12.80
2022-11-26T23:38:53.680Z,14.37
2022-11-26T23:41:20.511Z,14.60
2022-11-26T23:43:47.414Z,18.10
2022-11-26T23:46:31.281Z,15.30
2022-11-26T23:48:58.373Z,18.47
2022-11-26T23:51:29.620Z,17.77
2022-11-26T23:53:56.787Z,17.33
2022-11-26T23:56:26.146Z,18.63
2022-11-26T23:58:57.951Z,17.53
